sensor_id;sensor_type;location;lat;lon;timestamp;P1;durP1;ratioP1;P2;durP2;ratioP2
48835;SDS011;62581;47.342;7.908;2023-02-08T00:01:49;33.75;;;17.42;;
48835;SDS011;62581;47.342;7.908;2023-02-08T00:04:19;33.53;;;18.52;;
48835;SDS011;62581;47.342;7.908;2023-02-08T00:06:48;32.72;;;17.58;;
48835;SDS011;62581;47.342;7.908;2023-02-08T00:09:16;33.42;;;17.92;;
48835;SDS011;62581;47.342;7.908;2023-02-08T00:11:49;31.52;;;17.63;;
48835;SDS011;62581;47.342;7.908;2023-02-08T00:14:17;35.10;;;18.63;;
48835;SDS011;62581;47.342;7.908;2023-02-08T00:16:45;34.47;;;18.02;;
48835;SDS011;62581;47.342;7.908;2023-02-08T00:19:16;34.90;;;17.90;;
48835;SDS011;62581;47.342;7.908;2023-02-08T00:21:44;36.35;;;18.42;;
48835;SDS011;62581;47.342;7.908;2023-02-08T00:24:13;32.70;;;18.60;;
48835;SDS011;62581;47.342;7.908;2023-02-08T00:26:40;32.95;;;17.55;;
48835;SDS011;62581;47.342;7.908;2023-02-08T00:29:15;31.70;;;17.00;;
48835;SDS011;62581;47.342;7.908;2023-02-08T00:31:49;31.48;;;16.73;;
48835;SDS011;62581;47.342;7.908;2023-02-08T00:34:16;32.25;;;16.88;;
48835;SDS011;62581;47.342;7.908;2023-02-08T00:36:48;35.55;;;17.70;;
48835;SDS011;62581;47.342;7.908;2023-02-08T00:39:19;33.28;;;17.52;;
48835;SDS011;62581;47.342;7.908;2023-02-08T00:41:50;30.13;;;15.70;;
48835;SDS011;62581;47.342;7.908;2023-02-08T00:44:22;31.60;;;17.33;;
48835;SDS011;62581;47.342;7.908;2023-02-08T00:46:52;30.00;;;16.58;;
48835;SDS011;62581;47.342;7.908;2023-02-08T00:49:21;31.23;;;15.60;;
48835;SDS011;62581;47.342;7.908;2023-02-08T00:54:20;30.55;;;15.98;;
48835;SDS011;62581;47.342;7.908;2023-02-08T00:56:48;27.98;;;15.80;;
48835;SDS011;62581;47.342;7.908;2023-02-08T00:59:16;32.78;;;15.85;;
48835;SDS011;62581;47.342;7.908;2023-02-08T01:01:48;31.75;;;16.10;;
48835;SDS011;62581;47.342;7.908;2023-02-08T01:04:15;30.27;;;15.82;;
48835;SDS011;62581;47.342;7.908;2023-02-08T01:06:44;33.25;;;17.38;;
48835;SDS011;62581;47.342;7.908;2023-02-08T01:09:11;26.55;;;15.05;;
48835;SDS011;62581;47.342;7.908;2023-02-08T01:11:39;29.75;;;16.58;;
48835;SDS011;62581;47.342;7.908;2023-02-08T01:14:10;24.38;;;14.90;;
48835;SDS011;62581;47.342;7.908;2023-02-08T01:16:42;29.90;;;16.13;;
48835;SDS011;62581;47.342;7.908;2023-02-08T01:19:15;31.20;;;15.68;;
48835;SDS011;62581;47.342;7.908;2023-02-08T01:21:43;33.38;;;16.40;;
48835;SDS011;62581;47.342;7.908;2023-02-08T01:24:13;29.40;;;15.18;;
48835;SDS011;62581;47.342;7.908;2023-02-08T01:26:42;30.65;;;15.68;;
48835;SDS011;62581;47.342;7.908;2023-02-08T01:29:10;33.58;;;16.33;;
48835;SDS011;62581;47.342;7.908;2023-02-08T01:31:38;27.23;;;15.35;;
48835;SDS011;62581;47.342;7.908;2023-02-08T01:34:07;27.10;;;15.02;;
48835;SDS011;62581;47.342;7.908;2023-02-08T01:36:37;29.80;;;15.40;;
48835;SDS011;62581;47.342;7.908;2023-02-08T01:39:06;28.08;;;16.08;;
48835;SDS011;62581;47.342;7.908;2023-02-08T01:41:37;29.17;;;15.75;;
48835;SDS011;62581;47.342;7.908;2023-02-08T01:47:09;29.33;;;15.13;;
48835;SDS011;62581;47.342;7.908;2023-02-08T01:49:40;30.48;;;16.52;;
48835;SDS011;62581;47.342;7.908;2023-02-08T01:52:09;33.05;;;16.65;;
48835;SDS011;62581;47.342;7.908;2023-02-08T01:54:43;28.23;;;15.45;;
48835;SDS011;62581;47.342;7.908;2023-02-08T01:57:14;29.33;;;14.88;;
48835;SDS011;62581;47.342;7.908;2023-02-08T01:59:43;27.85;;;14.95;;
48835;SDS011;62581;47.342;7.908;2023-02-08T02:02:13;31.13;;;16.08;;
48835;SDS011;62581;47.342;7.908;2023-02-08T02:04:46;30.90;;;15.60;;
48835;SDS011;62581;47.342;7.908;2023-02-08T02:07:15;29.02;;;15.40;;
48835;SDS011;62581;47.342;7.908;2023-02-08T02:09:44;30.73;;;15.52;;
48835;SDS011;62581;47.342;7.908;2023-02-08T02:12:17;32.45;;;15.13;;
48835;SDS011;62581;47.342;7.908;2023-02-08T02:14:46;33.38;;;15.65;;
48835;SDS011;62581;47.342;7.908;2023-02-08T02:17:15;30.92;;;16.02;;
48835;SDS011;62581;47.342;7.908;2023-02-08T02:19:48;31.13;;;15.05;;
48835;SDS011;62581;47.342;7.908;2023-02-08T02:22:39;28.00;;;15.15;;
48835;SDS011;62581;47.342;7.908;2023-02-08T02:28:38;28.42;;;15.75;;
48835;SDS011;62581;47.342;7.908;2023-02-08T02:31:37;30.20;;;15.48;;
48835;SDS011;62581;47.342;7.908;2023-02-08T02:34:22;30.48;;;16.38;;
48835;SDS011;62581;47.342;7.908;2023-02-08T02:37:00;28.92;;;15.25;;
48835;SDS011;62581;47.342;7.908;2023-02-08T02:39:38;30.50;;;15.38;;
48835;SDS011;62581;47.342;7.908;2023-02-08T02:42:12;29.70;;;16.30;;
48835;SDS011;62581;47.342;7.908;2023-02-08T02:45:09;33.80;;;16.00;;
48835;SDS011;62581;47.342;7.908;2023-02-08T02:47:44;30.35;;;15.55;;
48835;SDS011;62581;47.342;7.908;2023-02-08T02:50:21;33.23;;;15.17;;
48835;SDS011;62581;47.342;7.908;2023-02-08T02:52:56;30.42;;;15.82;;
48835;SDS011;62581;47.342;7.908;2023-02-08T02:55:31;31.52;;;16.27;;
48835;SDS011;62581;47.342;7.908;2023-02-08T02:58:01;26.85;;;14.70;;
48835;SDS011;62581;47.342;7.908;2023-02-08T03:00:30;33.00;;;15.95;;
48835;SDS011;62581;47.342;7.908;2023-02-08T03:03:04;27.63;;;15.27;;
48835;SDS011;62581;47.342;7.908;2023-02-08T03:05:32;31.65;;;15.35;;
48835;SDS011;62581;47.342;7.908;2023-02-08T03:08:07;31.00;;;15.15;;
48835;SDS011;62581;47.342;7.908;2023-02-08T03:13:46;27.85;;;14.38;;
48835;SDS011;62581;47.342;7.908;2023-02-08T03:16:23;29.52;;;15.23;;
48835;SDS011;62581;47.342;7.908;2023-02-08T03:19:05;27.60;;;14.68;;
48835;SDS011;62581;47.342;7.908;2023-02-08T03:21:40;35.40;;;15.00;;
48835;SDS011;62581;47.342;7.908;2023-02-08T03:24:15;26.35;;;14.38;;
48835;SDS011;62581;47.342;7.908;2023-02-08T03:26:52;29.52;;;15.30;;
48835;SDS011;62581;47.342;7.908;2023-02-08T03:29:25;28.80;;;15.10;;
48835;SDS011;62581;47.342;7.908;2023-02-08T03:32:05;29.00;;;15.00;;
48835;SDS011;62581;47.342;7.908;2023-02-08T03:34:40;35.42;;;15.40;;
48835;SDS011;62581;47.342;7.908;2023-02-08T03:37:12;28.38;;;14.23;;
48835;SDS011;62581;47.342;7.908;2023-02-08T03:39:45;29.80;;;15.55;;
48835;SDS011;62581;47.342;7.908;2023-02-08T03:42:18;30.63;;;15.15;;
48835;SDS011;62581;47.342;7.908;2023-02-08T03:44:57;26.58;;;13.93;;
48835;SDS011;62581;47.342;7.908;2023-02-08T03:47:33;25.92;;;14.60;;
48835;SDS011;62581;47.342;7.908;2023-02-08T03:50:05;28.77;;;15.07;;
48835;SDS011;62581;47.342;7.908;2023-02-08T03:52:38;27.40;;;14.10;;
48835;SDS011;62581;47.342;7.908;2023-02-08T03:55:08;27.08;;;14.55;;
48835;SDS011;62581;47.342;7.908;2023-02-08T03:57:39;27.10;;;15.25;;
48835;SDS011;62581;47.342;7.908;2023-02-08T04:00:14;27.38;;;14.68;;
48835;SDS011;62581;47.342;7.908;2023-02-08T04:02:47;29.05;;;14.40;;
48835;SDS011;62581;47.342;7.908;2023-02-08T04:05:22;24.95;;;14.27;;
48835;SDS011;62581;47.342;7.908;2023-02-08T04:07:52;29.17;;;15.25;;
48835;SDS011;62581;47.342;7.908;2023-02-08T04:10:19;29.02;;;15.15;;
48835;SDS011;62581;47.342;7.908;2023-02-08T04:12:48;35.17;;;16.05;;
48835;SDS011;62581;47.342;7.908;2023-02-08T04:15:17;28.40;;;15.13;;
48835;SDS011;62581;47.342;7.908;2023-02-08T04:17:44;29.67;;;15.32;;
48835;SDS011;62581;47.342;7.908;2023-02-08T04:20:15;30.02;;;14.48;;
48835;SDS011;62581;47.342;7.908;2023-02-08T04:22:45;25.40;;;13.70;;
48835;SDS011;62581;47.342;7.908;2023-02-08T04:25:13;29.33;;;14.68;;
48835;SDS011;62581;47.342;7.908;2023-02-08T04:27:40;29.30;;;14.55;;
48835;SDS011;62581;47.342;7.908;2023-02-08T04:30:07;27.45;;;14.40;;
48835;SDS011;62581;47.342;7.908;2023-02-08T04:32:36;28.67;;;13.80;;
48835;SDS011;62581;47.342;7.908;2023-02-08T04:35:03;27.83;;;14.70;;
48835;SDS011;62581;47.342;7.908;2023-02-08T04:37:31;25.17;;;14.57;;
48835;SDS011;62581;47.342;7.908;2023-02-08T04:40:00;33.80;;;15.50;;
48835;SDS011;62581;47.342;7.908;2023-02-08T04:44:57;26.38;;;13.85;;
48835;SDS011;62581;47.342;7.908;2023-02-08T04:47:24;29.27;;;15.02;;
48835;SDS011;62581;47.342;7.908;2023-02-08T04:49:55;24.80;;;14.20;;
48835;SDS011;62581;47.342;7.908;2023-02-08T04:54:51;29.05;;;13.98;;
48835;SDS011;62581;47.342;7.908;2023-02-08T04:57:21;27.45;;;15.02;;
48835;SDS011;62581;47.342;7.908;2023-02-08T04:59:51;29.30;;;14.02;;
48835;SDS011;62581;47.342;7.908;2023-02-08T05:02:18;29.67;;;15.80;;
48835;SDS011;62581;47.342;7.908;2023-02-08T05:04:47;32.97;;;16.00;;
48835;SDS011;62581;47.342;7.908;2023-02-08T05:07:14;29.42;;;15.38;;
48835;SDS011;62581;47.342;7.908;2023-02-08T05:09:42;35.05;;;16.85;;
48835;SDS011;62581;47.342;7.908;2023-02-08T05:12:09;33.90;;;16.93;;
48835;SDS011;62581;47.342;7.908;2023-02-08T05:14:45;29.42;;;14.93;;
48835;SDS011;62581;47.342;7.908;2023-02-08T05:17:12;28.42;;;14.80;;
48835;SDS011;62581;47.342;7.908;2023-02-08T05:19:40;33.83;;;15.87;;
48835;SDS011;62581;47.342;7.908;2023-02-08T05:22:10;35.08;;;15.82;;
48835;SDS011;62581;47.342;7.908;2023-02-08T05:24:37;34.22;;;16.75;;
48835;SDS011;62581;47.342;7.908;2023-02-08T05:27:06;29.17;;;15.27;;
48835;SDS011;62581;47.342;7.908;2023-02-08T05:29:36;32.45;;;15.20;;
48835;SDS011;62581;47.342;7.908;2023-02-08T05:32:05;28.60;;;15.85;;
48835;SDS011;62581;47.342;7.908;2023-02-08T05:34:35;28.83;;;15.98;;
48835;SDS011;62581;47.342;7.908;2023-02-08T05:37:04;29.65;;;15.70;;
48835;SDS011;62581;47.342;7.908;2023-02-08T05:39:35;31.65;;;16.80;;
48835;SDS011;62581;47.342;7.908;2023-02-08T05:42:02;34.25;;;17.17;;
48835;SDS011;62581;47.342;7.908;2023-02-08T05:44:31;32.47;;;16.67;;
48835;SDS011;62581;47.342;7.908;2023-02-08T05:46:59;32.00;;;16.55;;
48835;SDS011;62581;47.342;7.908;2023-02-08T05:49:29;35.03;;;15.93;;
48835;SDS011;62581;47.342;7.908;2023-02-08T05:51:57;32.10;;;16.23;;
48835;SDS011;62581;47.342;7.908;2023-02-08T05:54:24;30.52;;;16.58;;
48835;SDS011;62581;47.342;7.908;2023-02-08T05:56:51;33.53;;;17.17;;
48835;SDS011;62581;47.342;7.908;2023-02-08T05:59:18;31.80;;;17.00;;
48835;SDS011;62581;47.342;7.908;2023-02-08T06:01:45;33.65;;;17.42;;
48835;SDS011;62581;47.342;7.908;2023-02-08T06:04:13;32.78;;;17.50;;
48835;SDS011;62581;47.342;7.908;2023-02-08T06:06:42;33.83;;;16.63;;
48835;SDS011;62581;47.342;7.908;2023-02-08T06:09:11;34.70;;;16.80;;
48835;SDS011;62581;47.342;7.908;2023-02-08T06:11:42;32.10;;;17.25;;
48835;SDS011;62581;47.342;7.908;2023-02-08T06:14:13;36.35;;;18.17;;
48835;SDS011;62581;47.342;7.908;2023-02-08T06:16:41;35.08;;;18.50;;
48835;SDS011;62581;47.342;7.908;2023-02-08T06:19:12;39.50;;;19.48;;
48835;SDS011;62581;47.342;7.908;2023-02-08T06:21:44;31.90;;;16.88;;
48835;SDS011;62581;47.342;7.908;2023-02-08T06:24:11;35.88;;;17.95;;
48835;SDS011;62581;47.342;7.908;2023-02-08T06:26:41;36.63;;;18.05;;
48835;SDS011;62581;47.342;7.908;2023-02-08T06:29:09;36.05;;;18.55;;
48835;SDS011;62581;47.342;7.908;2023-02-08T06:31:37;33.60;;;17.67;;
48835;SDS011;62581;47.342;7.908;2023-02-08T06:34:05;33.35;;;18.25;;
48835;SDS011;62581;47.342;7.908;2023-02-08T06:36:32;41.28;;;19.50;;
48835;SDS011;62581;47.342;7.908;2023-02-08T06:39:03;38.08;;;19.70;;
48835;SDS011;62581;47.342;7.908;2023-02-08T06:41:32;33.33;;;18.48;;
48835;SDS011;62581;47.342;7.908;2023-02-08T06:44:00;34.65;;;18.23;;
48835;SDS011;62581;47.342;7.908;2023-02-08T06:46:33;38.47;;;18.37;;
48835;SDS011;62581;47.342;7.908;2023-02-08T06:49:04;33.47;;;17.80;;
48835;SDS011;62581;47.342;7.908;2023-02-08T06:51:35;38.15;;;19.35;;
48835;SDS011;62581;47.342;7.908;2023-02-08T06:54:06;35.55;;;18.35;;
48835;SDS011;62581;47.342;7.908;2023-02-08T06:56:34;38.75;;;19.85;;
48835;SDS011;62581;47.342;7.908;2023-02-08T06:59:03;33.60;;;17.77;;
48835;SDS011;62581;47.342;7.908;2023-02-08T07:01:30;40.22;;;18.60;;
48835;SDS011;62581;47.342;7.908;2023-02-08T07:03:57;37.55;;;18.83;;
48835;SDS011;62581;47.342;7.908;2023-02-08T07:06:23;41.88;;;18.98;;
48835;SDS011;62581;47.342;7.908;2023-02-08T07:08:50;35.97;;;19.92;;
48835;SDS011;62581;47.342;7.908;2023-02-08T07:11:19;40.30;;;19.40;;
48835;SDS011;62581;47.342;7.908;2023-02-08T07:13:47;36.85;;;19.15;;
48835;SDS011;62581;47.342;7.908;2023-02-08T07:16:15;38.55;;;19.50;;
48835;SDS011;62581;47.342;7.908;2023-02-08T07:18:43;42.30;;;21.23;;
48835;SDS011;62581;47.342;7.908;2023-02-08T07:21:10;34.75;;;18.08;;
48835;SDS011;62581;47.342;7.908;2023-02-08T07:23:37;36.33;;;18.80;;
48835;SDS011;62581;47.342;7.908;2023-02-08T07:26:06;37.40;;;19.17;;
48835;SDS011;62581;47.342;7.908;2023-02-08T07:28:37;38.00;;;18.95;;
48835;SDS011;62581;47.342;7.908;2023-02-08T07:31:05;41.15;;;19.80;;
48835;SDS011;62581;47.342;7.908;2023-02-08T07:33:32;38.47;;;19.63;;
48835;SDS011;62581;47.342;7.908;2023-02-08T07:35:59;37.72;;;19.23;;
48835;SDS011;62581;47.342;7.908;2023-02-08T07:38:29;39.42;;;19.60;;
48835;SDS011;62581;47.342;7.908;2023-02-08T07:40:59;37.97;;;18.70;;
48835;SDS011;62581;47.342;7.908;2023-02-08T07:43:26;40.20;;;19.48;;
48835;SDS011;62581;47.342;7.908;2023-02-08T07:45:55;38.70;;;18.77;;
48835;SDS011;62581;47.342;7.908;2023-02-08T07:48:22;38.70;;;18.60;;
48835;SDS011;62581;47.342;7.908;2023-02-08T07:50:49;32.80;;;17.10;;
48835;SDS011;62581;47.342;7.908;2023-02-08T07:53:16;34.28;;;18.73;;
48835;SDS011;62581;47.342;7.908;2023-02-08T07:55:44;33.47;;;17.83;;
48835;SDS011;62581;47.342;7.908;2023-02-08T07:58:11;35.08;;;18.63;;
48835;SDS011;62581;47.342;7.908;2023-02-08T08:00:39;34.30;;;17.85;;
48835;SDS011;62581;47.342;7.908;2023-02-08T08:03:07;36.90;;;19.70;;
48835;SDS011;62581;47.342;7.908;2023-02-08T08:05:34;32.03;;;17.65;;
48835;SDS011;62581;47.342;7.908;2023-02-08T08:08:01;40.22;;;19.02;;
48835;SDS011;62581;47.342;7.908;2023-02-08T08:10:28;36.60;;;18.70;;
48835;SDS011;62581;47.342;7.908;2023-02-08T08:12:55;40.42;;;18.92;;
48835;SDS011;62581;47.342;7.908;2023-02-08T08:15:22;36.60;;;17.52;;
48835;SDS011;62581;47.342;7.908;2023-02-08T08:17:49;31.38;;;16.92;;
48835;SDS011;62581;47.342;7.908;2023-02-08T08:20:17;35.40;;;17.75;;
48835;SDS011;62581;47.342;7.908;2023-02-08T08:22:45;34.63;;;17.48;;
48835;SDS011;62581;47.342;7.908;2023-02-08T08:25:12;32.78;;;16.95;;
48835;SDS011;62581;47.342;7.908;2023-02-08T08:27:40;31.40;;;16.40;;
48835;SDS011;62581;47.342;7.908;2023-02-08T08:30:07;30.98;;;17.05;;
48835;SDS011;62581;47.342;7.908;2023-02-08T08:32:36;35.33;;;17.13;;
48835;SDS011;62581;47.342;7.908;2023-02-08T08:35:04;34.27;;;18.07;;
48835;SDS011;62581;47.342;7.908;2023-02-08T08:37:33;33.33;;;17.65;;
48835;SDS011;62581;47.342;7.908;2023-02-08T08:40:01;34.67;;;17.80;;
48835;SDS011;62581;47.342;7.908;2023-02-08T08:42:29;33.35;;;17.85;;
48835;SDS011;62581;47.342;7.908;2023-02-08T08:44:56;32.35;;;17.27;;
48835;SDS011;62581;47.342;7.908;2023-02-08T08:47:23;32.50;;;17.17;;
48835;SDS011;62581;47.342;7.908;2023-02-08T08:49:50;30.13;;;17.20;;
48835;SDS011;62581;47.342;7.908;2023-02-08T08:52:17;31.98;;;17.92;;
48835;SDS011;62581;47.342;7.908;2023-02-08T08:54:46;37.60;;;18.73;;
48835;SDS011;62581;47.342;7.908;2023-02-08T08:57:13;33.83;;;18.13;;
48835;SDS011;62581;47.342;7.908;2023-02-08T08:59:40;36.65;;;18.55;;
48835;SDS011;62581;47.342;7.908;2023-02-08T09:02:08;33.85;;;19.00;;
48835;SDS011;62581;47.342;7.908;2023-02-08T09:04:37;33.60;;;16.88;;
48835;SDS011;62581;47.342;7.908;2023-02-08T09:07:06;33.60;;;18.40;;
48835;SDS011;62581;47.342;7.908;2023-02-08T09:09:34;41.00;;;19.30;;
48835;SDS011;62581;47.342;7.908;2023-02-08T09:12:03;38.70;;;19.23;;
48835;SDS011;62581;47.342;7.908;2023-02-08T09:14:31;32.75;;;18.48;;
48835;SDS011;62581;47.342;7.908;2023-02-08T09:16:58;34.65;;;19.45;;
48835;SDS011;62581;47.342;7.908;2023-02-08T09:19:25;35.50;;;18.73;;
48835;SDS011;62581;47.342;7.908;2023-02-08T09:21:53;38.37;;;19.23;;
48835;SDS011;62581;47.342;7.908;2023-02-08T09:24:21;32.85;;;18.92;;
48835;SDS011;62581;47.342;7.908;2023-02-08T09:26:48;38.90;;;18.92;;
48835;SDS011;62581;47.342;7.908;2023-02-08T09:29:17;37.58;;;20.08;;
48835;SDS011;62581;47.342;7.908;2023-02-08T09:31:44;33.15;;;18.20;;
48835;SDS011;62581;47.342;7.908;2023-02-08T09:34:11;36.67;;;18.85;;
48835;SDS011;62581;47.342;7.908;2023-02-08T09:36:39;37.33;;;19.77;;
48835;SDS011;62581;47.342;7.908;2023-02-08T09:39:07;37.65;;;18.98;;
48835;SDS011;62581;47.342;7.908;2023-02-08T09:41:47;36.95;;;19.08;;
48835;SDS011;62581;47.342;7.908;2023-02-08T09:44:33;35.15;;;18.67;;
48835;SDS011;62581;47.342;7.908;2023-02-08T09:47:08;35.83;;;19.30;;
48835;SDS011;62581;47.342;7.908;2023-02-08T09:49:43;35.53;;;19.60;;
48835;SDS011;62581;47.342;7.908;2023-02-08T09:52:21;36.65;;;19.58;;
48835;SDS011;62581;47.342;7.908;2023-02-08T09:54:53;35.58;;;19.42;;
48835;SDS011;62581;47.342;7.908;2023-02-08T09:57:25;40.60;;;19.70;;
48835;SDS011;62581;47.342;7.908;2023-02-08T09:59:59;37.13;;;18.75;;
48835;SDS011;62581;47.342;7.908;2023-02-08T10:02:30;39.05;;;19.73;;
48835;SDS011;62581;47.342;7.908;2023-02-08T10:04:59;36.42;;;19.35;;
48835;SDS011;62581;47.342;7.908;2023-02-08T10:07:29;35.22;;;19.02;;
48835;SDS011;62581;47.342;7.908;2023-02-08T10:09:57;37.33;;;19.67;;
48835;SDS011;62581;47.342;7.908;2023-02-08T10:12:30;41.05;;;20.67;;
48835;SDS011;62581;47.342;7.908;2023-02-08T10:15:11;39.20;;;20.80;;
48835;SDS011;62581;47.342;7.908;2023-02-08T10:17:51;37.45;;;20.50;;
48835;SDS011;62581;47.342;7.908;2023-02-08T10:20:42;37.30;;;19.42;;
48835;SDS011;62581;47.342;7.908;2023-02-08T10:23:21;40.60;;;20.92;;
48835;SDS011;62581;47.342;7.908;2023-02-08T10:26:01;32.00;;;19.23;;
48835;SDS011;62581;47.342;7.908;2023-02-08T10:31:20;36.30;;;18.17;;
48835;SDS011;62581;47.342;7.908;2023-02-08T10:33:58;38.28;;;19.38;;
48835;SDS011;62581;47.342;7.908;2023-02-08T10:36:30;40.60;;;20.48;;
48835;SDS011;62581;47.342;7.908;2023-02-08T10:38:59;35.97;;;19.63;;
48835;SDS011;62581;47.342;7.908;2023-02-08T10:41:28;39.20;;;20.00;;
48835;SDS011;62581;47.342;7.908;2023-02-08T10:44:00;36.70;;;20.20;;
48835;SDS011;62581;47.342;7.908;2023-02-08T10:46:34;38.30;;;19.63;;
48835;SDS011;62581;47.342;7.908;2023-02-08T10:49:07;33.15;;;19.80;;
48835;SDS011;62581;47.342;7.908;2023-02-08T10:51:39;33.85;;;19.27;;
48835;SDS011;62581;47.342;7.908;2023-02-08T10:54:08;36.47;;;19.45;;
48835;SDS011;62581;47.342;7.908;2023-02-08T10:56:42;42.20;;;20.17;;
48835;SDS011;62581;47.342;7.908;2023-02-08T10:59:19;35.92;;;20.02;;
48835;SDS011;62581;47.342;7.908;2023-02-08T11:01:49;33.80;;;19.17;;
48835;SDS011;62581;47.342;7.908;2023-02-08T11:04:16;33.30;;;18.58;;
48835;SDS011;62581;47.342;7.908;2023-02-08T11:06:44;38.78;;;20.20;;
48835;SDS011;62581;47.342;7.908;2023-02-08T11:09:19;37.47;;;19.60;;
48835;SDS011;62581;47.342;7.908;2023-02-08T11:11:48;34.05;;;19.10;;
48835;SDS011;62581;47.342;7.908;2023-02-08T11:14:17;35.92;;;20.52;;
48835;SDS011;62581;47.342;7.908;2023-02-08T11:16:49;37.05;;;19.50;;
48835;SDS011;62581;47.342;7.908;2023-02-08T11:19:20;33.85;;;19.38;;
48835;SDS011;62581;47.342;7.908;2023-02-08T11:21:53;36.08;;;19.83;;
48835;SDS011;62581;47.342;7.908;2023-02-08T11:24:26;33.95;;;19.80;;
48835;SDS011;62581;47.342;7.908;2023-02-08T11:26:58;36.55;;;20.23;;
48835;SDS011;62581;47.342;7.908;2023-02-08T11:29:27;37.97;;;20.08;;
48835;SDS011;62581;47.342;7.908;2023-02-08T11:32:01;34.45;;;19.88;;
48835;SDS011;62581;47.342;7.908;2023-02-08T11:34:39;40.60;;;21.55;;
48835;SDS011;62581;47.342;7.908;2023-02-08T11:37:12;33.10;;;19.25;;
48835;SDS011;62581;47.342;7.908;2023-02-08T11:39:41;37.45;;;20.27;;
48835;SDS011;62581;47.342;7.908;2023-02-08T11:42:16;37.55;;;19.35;;
48835;SDS011;62581;47.342;7.908;2023-02-08T11:44:47;32.65;;;18.80;;
48835;SDS011;62581;47.342;7.908;2023-02-08T11:47:17;33.67;;;19.50;;
48835;SDS011;62581;47.342;7.908;2023-02-08T11:49:51;35.75;;;19.17;;
48835;SDS011;62581;47.342;7.908;2023-02-08T11:52:19;36.17;;;20.17;;
48835;SDS011;62581;47.342;7.908;2023-02-08T11:54:49;35.83;;;20.02;;
48835;SDS011;62581;47.342;7.908;2023-02-08T11:57:17;34.17;;;20.07;;
48835;SDS011;62581;47.342;7.908;2023-02-08T12:02:33;33.03;;;19.42;;
48835;SDS011;62581;47.342;7.908;2023-02-08T12:05:02;35.78;;;20.38;;
48835;SDS011;62581;47.342;7.908;2023-02-08T12:07:48;34.92;;;19.98;;
48835;SDS011;62581;47.342;7.908;2023-02-08T12:10:40;31.17;;;19.38;;
48835;SDS011;62581;47.342;7.908;2023-02-08T12:16:26;34.35;;;18.77;;
48835;SDS011;62581;47.342;7.908;2023-02-08T12:19:16;34.65;;;19.15;;
48835;SDS011;62581;47.342;7.908;2023-02-08T12:22:10;36.90;;;19.80;;
48835;SDS011;62581;47.342;7.908;2023-02-08T12:24:44;34.55;;;18.52;;
48835;SDS011;62581;47.342;7.908;2023-02-08T12:27:18;33.30;;;19.23;;
48835;SDS011;62581;47.342;7.908;2023-02-08T12:29:55;32.45;;;19.17;;
48835;SDS011;62581;47.342;7.908;2023-02-08T12:32:40;36.03;;;20.10;;
48835;SDS011;62581;47.342;7.908;2023-02-08T12:35:23;32.65;;;19.55;;
48835;SDS011;62581;47.342;7.908;2023-02-08T12:38:11;32.03;;;19.58;;
48835;SDS011;62581;47.342;7.908;2023-02-08T12:41:01;37.03;;;19.58;;
48835;SDS011;62581;47.342;7.908;2023-02-08T12:43:43;33.10;;;19.45;;
48835;SDS011;62581;47.342;7.908;2023-02-08T12:46:25;32.17;;;19.70;;
48835;SDS011;62581;47.342;7.908;2023-02-08T12:52:19;35.20;;;19.77;;
48835;SDS011;62581;47.342;7.908;2023-02-08T12:54:56;36.15;;;19.17;;
48835;SDS011;62581;47.342;7.908;2023-02-08T12:57:27;31.13;;;18.50;;
48835;SDS011;62581;47.342;7.908;2023-02-08T13:02:25;34.08;;;19.20;;
48835;SDS011;62581;47.342;7.908;2023-02-08T13:04:57;32.67;;;18.95;;
48835;SDS011;62581;47.342;7.908;2023-02-08T13:07:30;33.00;;;18.70;;
48835;SDS011;62581;47.342;7.908;2023-02-08T13:10:02;29.65;;;18.10;;
48835;SDS011;62581;47.342;7.908;2023-02-08T13:12:34;35.80;;;19.80;;
48835;SDS011;62581;47.342;7.908;2023-02-08T13:15:05;35.58;;;19.88;;
48835;SDS011;62581;47.342;7.908;2023-02-08T13:17:40;33.65;;;19.10;;
48835;SDS011;62581;47.342;7.908;2023-02-08T13:20:19;37.03;;;19.90;;
48835;SDS011;62581;47.342;7.908;2023-02-08T13:22:56;34.42;;;18.90;;
48835;SDS011;62581;47.342;7.908;2023-02-08T13:25:29;34.70;;;18.90;;
48835;SDS011;62581;47.342;7.908;2023-02-08T13:28:01;31.33;;;17.35;;
48835;SDS011;62581;47.342;7.908;2023-02-08T13:30:29;29.00;;;16.75;;
48835;SDS011;62581;47.342;7.908;2023-02-08T13:32:58;34.90;;;18.23;;
48835;SDS011;62581;47.342;7.908;2023-02-08T13:35:32;31.90;;;18.67;;
48835;SDS011;62581;47.342;7.908;2023-02-08T13:40:29;33.00;;;17.83;;
48835;SDS011;62581;47.342;7.908;2023-02-08T13:43:00;31.40;;;18.45;;
48835;SDS011;62581;47.342;7.908;2023-02-08T13:45:29;37.72;;;19.70;;
48835;SDS011;62581;47.342;7.908;2023-02-08T13:47:59;31.92;;;18.88;;
48835;SDS011;62581;47.342;7.908;2023-02-08T13:50:38;31.77;;;16.95;;
48835;SDS011;62581;47.342;7.908;2023-02-08T13:53:11;29.17;;;17.13;;
48835;SDS011;62581;47.342;7.908;2023-02-08T14:01:27;27.65;;;17.40;;
48835;SDS011;62581;47.342;7.908;2023-02-08T14:04:15;32.08;;;18.55;;
48835;SDS011;62581;47.342;7.908;2023-02-08T14:06:54;29.83;;;17.33;;
48835;SDS011;62581;47.342;7.908;2023-02-08T14:09:27;32.70;;;18.10;;
48835;SDS011;62581;47.342;7.908;2023-02-08T14:12:10;28.52;;;17.17;;
48835;SDS011;62581;47.342;7.908;2023-02-08T14:14:44;35.17;;;17.95;;
48835;SDS011;62581;47.342;7.908;2023-02-08T14:17:31;30.08;;;18.48;;
48835;SDS011;62581;47.342;7.908;2023-02-08T14:19:59;31.00;;;17.90;;
48835;SDS011;62581;47.342;7.908;2023-02-08T14:22:30;30.98;;;18.00;;
48835;SDS011;62581;47.342;7.908;2023-02-08T14:25:03;29.55;;;17.80;;
48835;SDS011;62581;47.342;7.908;2023-02-08T14:27:33;28.92;;;17.98;;
48835;SDS011;62581;47.342;7.908;2023-02-08T14:30:05;32.60;;;17.55;;
48835;SDS011;62581;47.342;7.908;2023-02-08T14:32:46;32.33;;;18.58;;
48835;SDS011;62581;47.342;7.908;2023-02-08T14:35:18;33.60;;;19.75;;
48835;SDS011;62581;47.342;7.908;2023-02-08T14:37:46;33.05;;;18.70;;
48835;SDS011;62581;47.342;7.908;2023-02-08T14:43:27;32.08;;;19.35;;
48835;SDS011;62581;47.342;7.908;2023-02-08T14:49:09;30.02;;;17.75;;
48835;SDS011;62581;47.342;7.908;2023-02-08T14:51:39;29.85;;;18.25;;
48835;SDS011;62581;47.342;7.908;2023-02-08T14:54:14;34.70;;;17.90;;
48835;SDS011;62581;47.342;7.908;2023-02-08T14:56:50;35.20;;;18.70;;
48835;SDS011;62581;47.342;7.908;2023-02-08T14:59:21;31.63;;;18.77;;
48835;SDS011;62581;47.342;7.908;2023-02-08T15:01:53;32.08;;;18.15;;
48835;SDS011;62581;47.342;7.908;2023-02-08T15:04:23;32.28;;;17.95;;
48835;SDS011;62581;47.342;7.908;2023-02-08T15:07:09;36.53;;;18.85;;
48835;SDS011;62581;47.342;7.908;2023-02-08T15:09:44;36.95;;;20.05;;
48835;SDS011;62581;47.342;7.908;2023-02-08T15:12:14;33.13;;;19.05;;
48835;SDS011;62581;47.342;7.908;2023-02-08T15:14:47;35.03;;;19.90;;
48835;SDS011;62581;47.342;7.908;2023-02-08T15:17:21;33.92;;;19.40;;
48835;SDS011;62581;47.342;7.908;2023-02-08T15:19:55;32.13;;;19.33;;
48835;SDS011;62581;47.342;7.908;2023-02-08T15:22:30;34.03;;;19.07;;
48835;SDS011;62581;47.342;7.908;2023-02-08T15:25:00;33.03;;;20.05;;
48835;SDS011;62581;47.342;7.908;2023-02-08T15:27:44;30.45;;;18.83;;
48835;SDS011;62581;47.342;7.908;2023-02-08T15:30:21;31.15;;;19.20;;
48835;SDS011;62581;47.342;7.908;2023-02-08T15:32:53;31.17;;;18.70;;